Time;durP1;ratioP1;P1;durP2;ratioP2;P2;SDS_P1;SDS_P2;PMS_P1;PMS_P2;Temp;Humidity;BMP_temperature;BMP_pressure;BME280_temperature;BME280_humidity;BME280_pressure;Samples;Min_cycle;Max_cycle;Signal;HPM_P1;HPM_P2
2023/06/30 00:01:29;;;;;;;27.98;21.13;;;16.60;99.90;;;;;;5020318;28;20377;-73
2023/06/30 00:03:55;;;;;;;26.70;17.23;;;16.60;99.90;;;;;;5018398;28;20798;-72
2023/06/30 00:06:21;;;;;;;34.17;20.10;;;16.50;99.90;;;;;;5013047;28;20948;-73
2023/06/30 00:08:48;;;;;;;29.55;20.73;;;16.40;99.90;;;;;;5015957;28;20400;-74
2023/06/30 00:11:14;;;;;;;28.30;21.50;;;16.40;99.90;;;;;;5017637;28;20384;-75
2023/06/30 00:13:40;;;;;;;34.90;22.07;;;16.30;99.90;;;;;;5017322;28;20446;-73
2023/06/30 00:16:05;;;;;;;31.20;21.47;;;16.50;99.90;;;;;;5016758;28;20388;-72
2023/06/30 00:18:31;;;;;;;32.33;23.17;;;16.50;99.90;;;;;;5014668;28;20389;-74
2023/06/30 00:20:57;;;;;;;34.88;22.42;;;16.50;99.90;;;;;;5014083;28;20392;-74
2023/06/30 00:23:27;;;;;;;32.17;23.40;;;16.40;99.90;;;;;;5014149;28;20404;-76
2023/06/30 00:25:53;;;;;;;32.13;22.83;;;16.40;99.90;;;;;;5014438;28;20456;-74
2023/06/30 00:28:18;;;;;;;32.50;23.67;;;16.40;99.90;;;;;;5013887;28;20826;-74
2023/06/30 00:30:44;;;;;;;30.20;21.37;;;16.50;99.90;;;;;;5014284;28;20427;-74
2023/06/30 00:33:10;;;;;;;33.88;22.60;;;16.40;99.90;;;;;;5013738;28;20797;-74
2023/06/30 00:35:35;;;;;;;26.13;18.00;;;16.30;99.90;;;;;;5014188;28;20443;-74
2023/06/30 00:38:01;;;;;;;29.30;19.60;;;16.30;99.90;;;;;;5014454;28;20385;-73
2023/06/30 00:40:26;;;;;;;18.53;13.63;;;16.30;99.90;;;;;;5015125;28;20869;-73
2023/06/30 00:42:52;;;;;;;22.30;12.23;;;16.40;99.90;;;;;;5012556;28;20397;-73
2023/06/30 00:45:18;;;;;;;18.42;13.07;;;16.30;99.90;;;;;;5013693;28;20384;-74
2023/06/30 00:47:43;;;;;;;17.75;13.30;;;16.20;99.90;;;;;;5013924;28;20826;-74
2023/06/30 00:50:09;;;;;;;19.43;13.57;;;16.10;99.90;;;;;;5013616;28;20416;-75
2023/06/30 00:52:35;;;;;;;22.00;13.80;;;16.10;99.90;;;;;;5013482;28;20750;-74
2023/06/30 00:55:01;;;;;;;17.90;13.90;;;16.10;99.90;;;;;;5013750;28;20404;-74
2023/06/30 00:57:26;;;;;;;20.02;14.40;;;16.20;99.90;;;;;;5013657;28;20900;-74
2023/06/30 00:59:52;;;;;;;20.23;12.55;;;16.20;99.90;;;;;;5012348;28;20447;-75
2023/06/30 01:02:27;;;;;;;20.00;12.00;;;16.20;99.90;;;;;;5013556;28;20392;-72
2023/06/30 01:05:16;;;;;;;18.23;12.02;;;16.20;99.90;;;;;;5013316;28;20392;-74
2023/06/30 01:07:55;;;;;;;18.15;13.20;;;16.20;99.90;;;;;;5013091;28;20413;-74
2023/06/30 01:10:23;;;;;;;18.73;12.48;;;16.20;99.90;;;;;;5013187;28;20385;-73
2023/06/30 01:12:50;;;;;;;18.45;11.93;;;16.30;99.90;;;;;;5013072;28;20392;-74
2023/06/30 01:15:17;;;;;;;20.05;12.52;;;16.30;98.10;;;;;;5013042;28;20381;-74
2023/06/30 01:17:51;;;;;;;18.65;13.93;;;16.30;96.10;;;;;;5013384;28;20874;-74
2023/06/30 01:20:19;;;;;;;24.05;13.95;;;16.40;97.60;;;;;;5013117;28;20801;-74
2023/06/30 01:22:51;;;;;;;18.88;12.57;;;16.40;98.40;;;;;;5012827;28;20480;-75
2023/06/30 01:25:26;;;;;;;19.50;12.90;;;16.50;95.00;;;;;;5013243;28;20456;-74
2023/06/30 01:27:54;;;;;;;25.95;15.00;;;16.50;94.40;;;;;;5013096;28;20416;-73
2023/06/30 01:30:20;;;;;;;22.90;15.40;;;16.50;95.30;;;;;;5013044;28;20399;-73
2023/06/30 01:32:46;;;;;;;30.05;19.45;;;16.50;92.70;;;;;;5012891;28;20476;-72
2023/06/30 01:35:12;;;;;;;26.88;19.83;;;16.40;91.40;;;;;;5012901;28;20878;-73
2023/06/30 01:37:38;;;;;;;31.83;20.40;;;16.40;91.50;;;;;;5013206;28;20466;-73
2023/06/30 01:40:04;;;;;;;29.17;20.07;;;16.40;93.40;;;;;;5013741;28;20487;-72
2023/06/30 01:42:30;;;;;;;29.20;18.88;;;16.50;92.50;;;;;;5013940;28;20479;-72
2023/06/30 01:44:57;;;;;;;31.30;17.85;;;16.50;91.90;;;;;;5017275;28;20401;-73
2023/06/30 01:47:22;;;;;;;39.40;19.40;;;16.50;90.80;;;;;;5025639;28;20420;-72
2023/06/30 01:49:48;;;;;;;26.58;18.55;;;16.40;92.90;;;;;;5029782;28;20376;-72
2023/06/30 01:52:14;;;;;;;30.65;18.23;;;16.30;95.00;;;;;;5030760;28;20400;-73
2023/06/30 01:54:40;;;;;;;28.60;16.13;;;16.20;97.90;;;;;;5030662;28;20458;-72
2023/06/30 01:57:05;;;;;;;21.67;13.20;;;16.10;99.90;;;;;;5025006;28;20395;-73
2023/06/30 01:59:31;;;;;;;21.00;13.48;;;16.00;99.90;;;;;;5013270;28;20408;-74
2023/06/30 02:01:56;;;;;;;19.80;12.80;;;16.00;99.90;;;;;;5013866;28;20746;-73
2023/06/30 02:04:22;;;;;;;16.97;10.70;;;16.10;97.50;;;;;;5014127;28;20389;-73
2023/06/30 02:06:48;;;;;;;23.20;11.25;;;16.00;96.60;;;;;;5014170;28;20495;-73
2023/06/30 02:09:13;;;;;;;19.73;11.98;;;16.00;96.20;;;;;;5012836;28;20380;-73
2023/06/30 02:11:39;;;;;;;19.77;11.50;;;16.00;97.30;;;;;;5013259;28;20377;-74
2023/06/30 02:14:05;;;;;;;21.67;11.50;;;16.00;96.40;;;;;;5013178;28;20381;-72
2023/06/30 02:16:31;;;;;;;27.07;11.20;;;16.10;94.60;;;;;;5014687;28;20428;-74
2023/06/30 02:18:56;;;;;;;18.10;11.95;;;16.20;92.40;;;;;;5015470;28;20398;-71
2023/06/30 02:21:23;;;;;;;21.10;12.00;;;16.20;93.00;;;;;;5016701;28;20381;-72
2023/06/30 02:23:49;;;;;;;23.70;13.30;;;16.20;91.70;;;;;;5017135;28;20401;-73
2023/06/30 02:26:15;;;;;;;21.80;13.50;;;16.20;90.80;;;;;;5016404;28;20393;-73
2023/06/30 02:28:42;;;;;;;22.10;13.33;;;16.20;91.50;;;;;;5015391;28;20570;-72
2023/06/30 02:31:08;;;;;;;20.83;12.80;;;16.30;92.40;;;;;;5016950;28;20480;-73
2023/06/30 02:33:33;;;;;;;23.02;12.93;;;16.30;90.90;;;;;;5012659;28;20459;-73
2023/06/30 02:35:59;;;;;;;17.50;12.13;;;16.30;88.00;;;;;;5012138;28;20381;-73
2023/06/30 02:38:24;;;;;;;22.67;12.40;;;16.30;87.00;;;;;;5012458;28;21257;-73
2023/06/30 02:40:50;;;;;;;22.73;11.57;;;16.30;83.80;;;;;;5013808;28;20389;-73
2023/06/30 02:43:15;;;;;;;24.95;11.90;;;16.30;84.10;;;;;;5015030;28;20393;-73
2023/06/30 02:45:41;;;;;;;20.97;11.60;;;16.40;85.40;;;;;;5017648;28;20417;-72
2023/06/30 02:48:07;;;;;;;24.30;12.73;;;16.40;85.10;;;;;;5017970;28;20412;-73
2023/06/30 02:50:32;;;;;;;19.27;12.80;;;16.40;86.60;;;;;;5020144;28;20785;-73
2023/06/30 02:52:59;;;;;;;19.27;12.13;;;16.50;86.80;;;;;;5016929;28;20451;-73
2023/06/30 02:55:25;;;;;;;19.63;11.70;;;16.50;86.20;;;;;;5016525;28;20384;-71
2023/06/30 02:57:50;;;;;;;22.00;11.40;;;16.50;86.50;;;;;;5014183;28;20399;-73
2023/06/30 03:00:16;;;;;;;19.77;11.00;;;16.50;87.10;;;;;;5014860;28;20383;-72
2023/06/30 03:02:42;;;;;;;24.75;11.35;;;16.40;86.50;;;;;;5011538;28;20388;-71
2023/06/30 03:05:08;;;;;;;20.30;10.93;;;16.30;86.40;;;;;;5010887;28;20389;-71
2023/06/30 03:07:34;;;;;;;23.52;10.93;;;16.30;86.80;;;;;;5010893;28;20503;-71
2023/06/30 03:10:00;;;;;;;17.95;10.93;;;16.30;86.20;;;;;;5010970;28;20377;-72
2023/06/30 03:12:26;;;;;;;21.37;11.17;;;16.20;87.40;;;;;;5010564;28;20880;-71
2023/06/30 03:14:51;;;;;;;23.80;11.70;;;16.20;87.20;;;;;;5009761;28;20799;-72
2023/06/30 03:17:17;;;;;;;19.73;11.00;;;16.20;86.90;;;;;;5010817;28;20459;-72
2023/06/30 03:19:42;;;;;;;24.03;10.87;;;16.30;86.20;;;;;;5010710;28;20388;-71
2023/06/30 03:22:08;;;;;;;17.70;10.33;;;16.20;85.40;;;;;;5010309;28;20381;-71
2023/06/30 03:24:33;;;;;;;21.88;10.45;;;16.30;84.70;;;;;;5011210;28;20400;-70
2023/06/30 03:26:59;;;;;;;22.15;10.55;;;16.20;83.00;;;;;;5011444;28;20408;-70
2023/06/30 03:29:25;;;;;;;17.67;10.60;;;16.20;82.30;;;;;;5011426;28;20459;-69
2023/06/30 03:31:51;;;;;;;19.02;9.32;;;16.20;83.00;;;;;;5012760;28;20403;-72
2023/06/30 03:34:16;;;;;;;17.60;10.48;;;16.20;81.40;;;;;;5012699;28;20385;-70
2023/06/30 03:36:42;;;;;;;16.90;9.17;;;16.20;81.70;;;;;;5012610;28;20399;-73
2023/06/30 03:39:07;;;;;;;15.23;9.53;;;16.20;79.50;;;;;;5012289;28;20471;-71
2023/06/30 03:41:33;;;;;;;16.83;9.15;;;16.20;79.80;;;;;;5012152;28;20731;-70
2023/06/30 03:43:58;;;;;;;17.55;8.88;;;16.20;79.90;;;;;;5011009;28;20397;-71
2023/06/30 03:46:24;;;;;;;19.00;9.53;;;16.20;79.10;;;;;;5011466;28;20445;-71
2023/06/30 03:48:50;;;;;;;15.87;8.97;;;16.20;79.50;;;;;;5011077;28;20389;-70
2023/06/30 03:51:16;;;;;;;22.40;9.87;;;16.20;81.00;;;;;;5010602;28;20469;-71
2023/06/30 03:53:42;;;;;;;19.65;9.70;;;16.20;79.30;;;;;;5010882;28;20384;-70
2023/06/30 03:56:08;;;;;;;22.45;9.77;;;16.30;79.30;;;;;;5011313;28;20385;-70
2023/06/30 03:58:33;;;;;;;23.42;10.52;;;16.20;79.40;;;;;;5011249;28;20403;-71
2023/06/30 04:00:59;;;;;;;18.57;9.40;;;16.30;81.40;;;;;;5009062;28;20475;-72
2023/06/30 04:03:25;;;;;;;19.83;9.50;;;16.30;77.20;;;;;;5011037;28;20377;-69
2023/06/30 04:05:51;;;;;;;16.98;8.38;;;16.30;77.10;;;;;;5010738;28;20442;-73
2023/06/30 04:08:16;;;;;;;17.60;8.47;;;16.30;74.90;;;;;;5010669;28;20499;-70
2023/06/30 04:10:43;;;;;;;19.67;8.53;;;16.30;74.00;;;;;;5010716;28;20895;-70
2023/06/30 04:13:09;;;;;;;14.50;8.30;;;16.30;73.40;;;;;;5010197;28;20392;-72
2023/06/30 04:15:34;;;;;;;23.13;8.50;;;16.30;73.90;;;;;;5010470;28;20480;-70
2023/06/30 04:18:00;;;;;;;16.75;7.70;;;16.30;73.70;;;;;;5010716;28;20388;-70
2023/06/30 04:20:26;;;;;;;16.50;7.77;;;16.30;68.30;;;;;;5010357;28;20403;-70
2023/06/30 04:22:52;;;;;;;19.63;7.32;;;16.30;68.90;;;;;;5010139;28;20412;-71
2023/06/30 04:25:17;;;;;;;16.52;7.95;;;16.30;67.10;;;;;;5009091;28;20447;-71
2023/06/30 04:27:43;;;;;;;17.40;7.33;;;16.20;69.00;;;;;;5010633;28;20415;-70
2023/06/30 04:30:09;;;;;;;14.70;7.83;;;16.10;65.80;;;;;;5010403;28;20380;-70
2023/06/30 04:32:35;;;;;;;15.47;7.13;;;16.10;67.30;;;;;;5010353;28;21015;-71
2023/06/30 04:35:01;;;;;;;19.07;7.27;;;16.10;67.10;;;;;;5011928;28;20416;-72
2023/06/30 04:37:28;;;;;;;17.75;7.30;;;16.10;67.20;;;;;;5014356;28;20384;-70
2023/06/30 04:39:55;;;;;;;14.17;6.73;;;16.10;64.50;;;;;;5014145;28;20447;-71
2023/06/30 04:42:21;;;;;;;14.00;7.57;;;16.20;65.10;;;;;;5013657;28;20393;-70
2023/06/30 04:44:47;;;;;;;14.77;7.75;;;16.20;67.20;;;;;;5014241;28;20396;-70
2023/06/30 04:47:12;;;;;;;13.97;8.93;;;16.30;69.10;;;;;;5013682;28;20412;-70
2023/06/30 04:49:38;;;;;;;20.60;8.90;;;16.40;70.50;;;;;;5013887;28;20381;-69
2023/06/30 04:52:04;;;;;;;16.02;8.23;;;16.50;69.90;;;;;;5013741;28;20870;-70
2023/06/30 04:54:30;;;;;;;14.45;7.53;;;16.50;65.10;;;;;;5013858;28;20392;-70
2023/06/30 04:56:56;;;;;;;10.80;6.95;;;16.50;64.80;;;;;;5013683;28;20403;-72
2023/06/30 04:59:23;;;;;;;15.82;7.80;;;16.50;60.40;;;;;;5013716;28;20479;-72
2023/06/30 05:01:49;;;;;;;16.90;6.70;;;16.50;59.50;;;;;;5013721;28;20396;-71
2023/06/30 05:04:15;;;;;;;16.10;6.78;;;16.40;55.60;;;;;;5013692;28;20754;-70
2023/06/30 05:06:41;;;;;;;14.77;6.63;;;16.40;58.20;;;;;;5012043;28;20412;-70
2023/06/30 05:09:06;;;;;;;14.95;5.68;;;16.40;58.40;;;;;;5013210;28;20893;-71
2023/06/30 05:11:32;;;;;;;16.13;5.50;;;16.40;55.40;;;;;;5013397;28;20870;-70
2023/06/30 05:13:57;;;;;;;13.50;5.13;;;16.40;54.90;;;;;;5013256;28;20420;-70
2023/06/30 05:16:23;;;;;;;13.27;4.50;;;16.30;51.10;;;;;;5013070;28;20393;-70
2023/06/30 05:18:48;;;;;;;13.18;4.63;;;16.40;50.80;;;;;;5013559;28;20407;-71
2023/06/30 05:21:14;;;;;;;13.40;4.73;;;16.40;49.00;;;;;;5011487;28;20755;-70
2023/06/30 05:23:39;;;;;;;9.40;4.60;;;16.50;49.00;;;;;;5012901;28;20396;-70
2023/06/30 05:26:06;;;;;;;13.17;4.90;;;16.60;49.60;;;;;;5013105;28;20392;-72
2023/06/30 05:28:32;;;;;;;13.83;4.00;;;16.60;49.30;;;;;;5013726;28;20518;-71
2023/06/30 05:30:57;;;;;;;13.57;4.90;;;16.60;48.90;;;;;;5011625;28;20468;-71
2023/06/30 05:33:23;;;;;;;11.63;5.10;;;16.60;48.50;;;;;;5013762;28;20423;-71
2023/06/30 05:35:48;;;;;;;17.10;5.47;;;16.50;48.70;;;;;;5012792;28;20439;-69
2023/06/30 05:38:14;;;;;;;12.90;5.10;;;16.40;50.20;;;;;;5013226;28;20393;-70
2023/06/30 05:40:39;;;;;;;12.13;4.53;;;16.40;49.90;;;;;;5013142;28;20535;-71
2023/06/30 05:43:05;;;;;;;11.70;4.57;;;16.50;48.10;;;;;;5012798;28;20479;-69
2023/06/30 05:45:30;;;;;;;11.93;4.70;;;16.50;48.60;;;;;;5012820;28;20813;-72
2023/06/30 05:47:56;;;;;;;13.88;4.40;;;16.60;45.90;;;;;;5013167;28;20491;-70
2023/06/30 05:50:23;;;;;;;12.38;4.47;;;16.80;47.10;;;;;;5012848;28;20846;-71
2023/06/30 05:52:49;;;;;;;10.20;3.90;;;16.90;44.40;;;;;;5012369;28;20400;-70
2023/06/30 05:55:15;;;;;;;16.75;4.70;;;17.00;43.20;;;;;;5014812;28;20389;-71
2023/06/30 05:57:40;;;;;;;10.27;4.03;;;17.00;42.70;;;;;;5027135;28;20873;-71
2023/06/30 06:00:07;;;;;;;10.80;4.57;;;16.90;42.30;;;;;;5016761;28;20419;-71
2023/06/30 06:02:33;;;;;;;13.90;5.28;;;16.80;43.30;;;;;;5015668;28;22057;-71
2023/06/30 06:04:59;;;;;;;14.35;4.50;;;16.80;44.20;;;;;;5014184;28;20381;-70
2023/06/30 06:07:25;;;;;;;13.38;4.60;;;16.70;41.70;;;;;;5016889;28;20880;-71
2023/06/30 06:09:50;;;;;;;10.23;4.70;;;16.60;41.00;;;;;;5019676;28;20463;-70
2023/06/30 06:12:16;;;;;;;13.70;4.73;;;16.50;41.50;;;;;;5019503;28;20396;-71
2023/06/30 06:14:41;;;;;;;14.93;5.73;;;16.50;41.90;;;;;;5017487;28;20389;-70
2023/06/30 06:17:07;;;;;;;18.20;5.70;;;16.40;43.10;;;;;;5016441;28;20959;-71
2023/06/30 06:19:33;;;;;;;16.75;4.90;;;16.60;44.70;;;;;;5016566;28;20420;-70
2023/06/30 06:21:58;;;;;;;12.27;5.00;;;16.70;44.60;;;;;;4997990;28;20447;-72
2023/06/30 06:24:24;;;;;;;15.60;4.70;;;16.80;43.50;;;;;;5015345;28;20479;-70
2023/06/30 06:26:49;;;;;;;15.00;4.80;;;16.90;45.30;;;;;;5015914;28;20405;-71
2023/06/30 06:29:19;;;;;;;19.05;4.85;;;17.00;41.40;;;;;;5048817;28;20830;-71
2023/06/30 06:31:45;;;;;;;10.55;4.30;;;17.10;42.90;;;;;;5050849;28;20382;-71
2023/06/30 06:34:11;;;;;;;15.05;4.78;;;17.10;43.20;;;;;;5035223;28;20843;-72
2023/06/30 06:36:37;;;;;;;12.40;4.55;;;17.20;41.80;;;;;;5034280;28;20391;-72
2023/06/30 06:39:03;;;;;;;17.13;4.95;;;17.30;41.40;;;;;;5033821;28;20414;-70
2023/06/30 06:41:29;;;;;;;18.42;7.50;;;17.40;39.20;;;;;;5033357;28;20387;-72
2023/06/30 06:43:54;;;;;;;17.53;7.97;;;17.50;37.90;;;;;;5035037;28;20394;-71
2023/06/30 06:46:20;;;;;;;26.23;8.30;;;17.40;36.00;;;;;;5039169;28;20409;-71
2023/06/30 06:48:45;;;;;;;16.67;6.95;;;17.20;37.40;;;;;;5044604;28;20394;-72
2023/06/30 06:51:11;;;;;;;12.70;6.33;;;17.00;36.20;;;;;;5055225;28;20397;-71
2023/06/30 06:53:37;;;;;;;14.55;4.90;;;17.10;38.00;;;;;;5038620;28;20502;-71
2023/06/30 06:56:03;;;;;;;12.80;5.80;;;17.00;34.60;;;;;;5046562;28;20417;-71
2023/06/30 06:58:31;;;;;;;18.52;6.25;;;17.00;35.50;;;;;;5033463;28;20398;-71
2023/06/30 07:00:57;;;;;;;17.70;6.53;;;17.00;37.30;;;;;;5034932;28;20442;-72
2023/06/30 07:03:23;;;;;;;16.27;6.90;;;16.90;35.80;;;;;;5036109;28;20391;-72
2023/06/30 07:05:49;;;;;;;16.63;6.20;;;17.00;36.00;;;;;;5035528;28;20494;-72
2023/06/30 07:08:19;;;;;;;16.25;6.38;;;17.00;36.90;;;;;;5035775;28;20442;-72
2023/06/30 07:10:45;;;;;;;15.70;6.80;;;17.00;35.80;;;;;;5034866;28;20401;-72
2023/06/30 07:13:12;;;;;;;21.58;7.20;;;17.00;36.30;;;;;;5020076;28;20477;-71
2023/06/30 07:15:37;;;;;;;14.27;6.80;;;17.00;36.10;;;;;;5015598;28;20484;-73
2023/06/30 07:18:03;;;;;;;14.10;5.80;;;17.10;36.20;;;;;;5037129;28;20393;-70
2023/06/30 07:20:28;;;;;;;13.80;6.10;;;17.20;34.70;;;;;;5039756;28;20465;-71
2023/06/30 07:22:56;;;;;;;14.25;5.00;;;17.30;34.80;;;;;;5037544;28;20399;-72
2023/06/30 07:25:22;;;;;;;10.73;4.72;;;17.40;35.10;;;;;;5037004;28;20872;-72
2023/06/30 07:27:52;;;;;;;23.75;5.30;;;17.40;34.60;;;;;;5055086;28;20813;-73
2023/06/30 07:30:19;;;;;;;13.07;4.93;;;17.50;33.40;;;;;;5056323;28;20396;-72
2023/06/30 07:32:45;;;;;;;13.90;5.25;;;17.50;33.50;;;;;;5055608;28;20472;-73
2023/06/30 07:35:11;;;;;;;12.83;4.67;;;17.60;32.30;;;;;;5055878;28;20401;-72
2023/06/30 07:37:36;;;;;;;9.33;4.00;;;17.60;31.20;;;;;;5042700;28;20407;-73
2023/06/30 07:40:02;;;;;;;11.35;3.90;;;17.50;32.60;;;;;;5036417;28;20399;-72
2023/06/30 07:42:28;;;;;;;14.30;3.97;;;17.50;31.80;;;;;;5035923;28;20767;-72
2023/06/30 07:44:53;;;;;;;14.02;4.13;;;17.60;29.80;;;;;;5038105;28;20438;-72
2023/06/30 07:47:19;;;;;;;14.57;3.80;;;17.50;30.60;;;;;;5036773;28;20406;-72
2023/06/30 07:49:44;;;;;;;9.80;4.20;;;17.40;31.40;;;;;;5036251;28;20938;-73
2023/06/30 07:52:10;;;;;;;11.13;3.60;;;17.70;30.40;;;;;;5035301;28;20436;-71
2023/06/30 07:54:36;;;;;;;8.15;3.40;;;17.60;29.90;;;;;;5036369;28;20864;-72
2023/06/30 07:57:01;;;;;;;7.93;2.97;;;17.60;28.60;;;;;;5035701;28;20391;-72
2023/06/30 07:59:27;;;;;;;8.65;2.90;;;17.50;26.90;;;;;;5048942;28;20408;-74
2023/06/30 08:01:53;;;;;;;7.20;2.75;;;17.50;24.80;;;;;;5060113;28;20389;-74
2023/06/30 08:04:19;;;;;;;8.48;2.88;;;17.60;26.50;;;;;;5058893;28;20909;-73
2023/06/30 08:06:44;;;;;;;7.40;3.10;;;17.80;25.70;;;;;;5053816;28;20411;-72
2023/06/30 08:09:10;;;;;;;7.87;2.80;;;18.00;26.00;;;;;;5039087;28;20969;-73
2023/06/30 08:11:36;;;;;;;8.07;3.30;;;18.00;24.50;;;;;;5042339;28;20387;-70
2023/06/30 08:14:04;;;;;;;13.50;3.78;;;17.90;25.50;;;;;;5037894;28;20391;-72
2023/06/30 08:16:29;;;;;;;7.70;2.60;;;18.10;25.20;;;;;;5036677;28;20387;-71
2023/06/30 08:18:55;;;;;;;11.30;3.58;;;18.20;25.10;;;;;;5037123;28;20391;-72
2023/06/30 08:21:21;;;;;;;14.77;3.45;;;18.40;24.00;;;;;;5034558;28;20376;-71
2023/06/30 08:23:46;;;;;;;15.23;3.50;;;18.30;24.60;;;;;;5036884;28;20402;-70
2023/06/30 08:26:12;;;;;;;10.90;4.00;;;18.30;23.30;;;;;;5037229;28;20413;-71
2023/06/30 08:28:37;;;;;;;22.88;5.20;;;18.40;24.40;;;;;;5034711;28;20410;-72
2023/06/30 08:31:03;;;;;;;18.15;4.75;;;18.70;24.20;;;;;;5034101;28;20452;-72
2023/06/30 08:33:29;;;;;;;9.87;3.70;;;18.80;23.60;;;;;;5033810;28;20410;-71
2023/06/30 08:35:55;;;;;;;9.80;2.92;;;19.00;21.50;;;;;;5033606;28;20383;-70
2023/06/30 08:38:21;;;;;;;7.18;3.40;;;19.10;20.80;;;;;;5033817;28;20796;-72
2023/06/30 08:40:46;;;;;;;11.88;3.65;;;19.10;21.90;;;;;;5033896;28;20383;-72
2023/06/30 08:43:12;;;;;;;8.83;3.17;;;19.20;21.70;;;;;;5034326;28;20397;-70
2023/06/30 08:45:43;;;;;;;10.60;3.10;;;19.20;20.70;;;;;;5032101;28;20486;-73
2023/06/30 08:48:09;;;;;;;8.30;3.40;;;19.20;20.60;;;;;;5029441;28;20410;-72
2023/06/30 08:50:36;;;;;;;8.23;2.88;;;19.00;21.20;;;;;;5031980;28;20379;-72
2023/06/30 08:53:03;;;;;;;13.15;4.30;;;19.00;21.80;;;;;;5024914;28;21518;-72
2023/06/30 08:55:29;;;;;;;10.65;3.35;;;19.10;22.20;;;;;;5033450;28;20387;-72
2023/06/30 08:57:56;;;;;;;16.67;3.75;;;19.20;21.30;;;;;;5033311;28;20446;-71
2023/06/30 09:00:23;;;;;;;10.65;3.40;;;19.20;21.70;;;;;;5032674;28;20499;-71
2023/06/30 09:02:50;;;;;;;13.73;3.33;;;19.30;21.20;;;;;;5032017;28;20493;-72
2023/06/30 09:05:15;;;;;;;7.03;2.70;;;19.10;19.50;;;;;;5043520;28;20398;-71
2023/06/30 09:07:54;;;;;;;7.65;2.80;;;19.30;20.90;;;;;;5038313;28;20468;-70
2023/06/30 09:10:23;;;;;;;10.95;3.40;;;19.40;21.10;;;;;;5033394;28;20836;-71
2023/06/30 09:12:51;;;;;;;8.57;2.80;;;19.60;19.90;;;;;;5031891;28;20449;-71
2023/06/30 09:15:19;;;;;;;8.55;2.72;;;19.40;18.80;;;;;;5032089;28;20383;-72
2023/06/30 09:17:46;;;;;;;5.03;2.35;;;19.30;19.40;;;;;;5031691;28;20406;-71
2023/06/30 09:20:12;;;;;;;13.00;3.22;;;19.30;19.70;;;;;;5032334;28;20387;-72
2023/06/30 09:25:07;;;;;;;13.07;3.70;;;19.70;18.40;;;;;;4995069;28;20449;-77
2023/06/30 09:27:36;;;;;;;9.35;3.13;;;19.80;18.00;;;;;;4996351;28;20418;-79
2023/06/30 09:30:02;;;;;;;11.20;3.20;;;19.80;18.10;;;;;;4981629;28;20387;-77
2023/06/30 09:32:32;;;;;;;4.90;2.10;;;19.80;18.60;;;;;;4977532;28;20389;-77
2023/06/30 09:35:08;;;;;;;6.50;2.60;;;19.60;17.20;;;;;;4958473;28;20392;-75
2023/06/30 09:37:43;;;;;;;4.13;2.10;;;19.60;17.70;;;;;;4956356;29;20400;-80
2023/06/30 09:40:15;;;;;;;8.45;2.20;;;19.90;17.80;;;;;;4973220;28;20430;-77
2023/06/30 09:42:42;;;;;;;3.60;1.90;;;20.30;17.30;;;;;;4977723;28;20435;-76
2023/06/30 09:45:08;;;;;;;3.95;1.83;;;20.30;16.90;;;;;;4957372;29;20402;-77
2023/06/30 09:47:34;;;;;;;5.70;2.10;;;20.30;15.90;;;;;;4974973;28;20759;-76
2023/06/30 09:49:59;;;;;;;8.13;2.33;;;20.30;16.00;;;;;;4977597;28;20404;-76
2023/06/30 09:52:25;;;;;;;4.80;2.50;;;20.30;15.50;;;;;;4977754;28;20487;-77
2023/06/30 09:54:51;;;;;;;6.57;2.77;;;20.40;16.20;;;;;;4983240;28;20388;-77
2023/06/30 09:57:16;;;;;;;7.43;2.85;;;20.60;15.00;;;;;;4984081;28;20404;-77
2023/06/30 09:59:42;;;;;;;5.20;2.20;;;20.50;15.00;;;;;;4987967;28;20491;-77
2023/06/30 10:02:10;;;;;;;5.10;2.70;;;20.40;14.40;;;;;;4981927;28;20459;-77
2023/06/30 10:04:35;;;;;;;8.30;2.10;;;20.10;13.80;;;;;;4976368;28;20403;-78
2023/06/30 10:07:03;;;;;;;9.32;2.80;;;20.30;14.70;;;;;;4975168;28;20466;-77
2023/06/30 10:09:30;;;;;;;8.47;2.83;;;20.70;15.00;;;;;;4974542;28;20396;-76
2023/06/30 10:11:57;;;;;;;6.57;2.50;;;20.90;15.00;;;;;;4974852;28;20476;-76
2023/06/30 10:14:34;;;;;;;8.40;3.10;;;21.10;13.40;;;;;;4974228;28;20400;-77
2023/06/30 10:17:01;;;;;;;10.57;2.90;;;21.60;12.90;;;;;;4974070;28;20798;-76
2023/06/30 10:19:30;;;;;;;4.75;1.80;;;21.70;12.80;;;;;;4973811;28;20435;-77
2023/06/30 10:21:57;;;;;;;3.28;1.50;;;21.40;13.50;;;;;;4974294;28;20388;-76
2023/06/30 10:24:27;;;;;;;8.52;2.00;;;21.30;13.30;;;;;;4974317;28;20451;-77
2023/06/30 10:26:58;;;;;;;5.93;1.70;;;21.10;13.30;;;;;;4974262;28;20503;-76
2023/06/30 10:29:24;;;;;;;4.63;1.80;;;21.30;13.00;;;;;;4973702;28;20380;-76
2023/06/30 10:31:50;;;;;;;4.75;1.90;;;21.50;13.00;;;;;;4974090;28;20423;-76
2023/06/30 10:34:17;;;;;;;5.05;2.47;;;21.80;13.00;;;;;;4976031;28;20398;-76
2023/06/30 10:36:43;;;;;;;5.25;1.95;;;22.00;12.70;;;;;;4977446;28;20423;-77
2023/06/30 10:39:10;;;;;;;7.88;2.40;;;22.00;12.80;;;;;;4977024;28;20434;-74
2023/06/30 10:41:49;;;;;;;6.63;2.20;;;21.50;13.90;;;;;;4975295;28;20392;-77
2023/06/30 10:44:15;;;;;;;6.50;2.40;;;21.20;15.00;;;;;;4978117;28;20388;-73
2023/06/30 10:46:56;;;;;;;4.33;2.10;;;21.50;14.40;;;;;;4974054;28;20543;-76
2023/06/30 10:49:31;;;;;;;3.72;2.20;;;22.00;12.90;;;;;;4966879;28;20407;-76
2023/06/30 10:52:08;;;;;;;4.90;2.40;;;22.10;13.20;;;;;;4973942;28;20451;-76
2023/06/30 10:54:44;;;;;;;6.00;2.80;;;22.20;13.10;;;;;;4951934;28;20392;-77
2023/06/30 10:57:19;;;;;;;6.00;2.50;;;21.90;12.40;;;;;;4972509;28;20408;-75
2023/06/30 10:59:46;;;;;;;7.40;2.20;;;22.10;12.00;;;;;;4956853;28;20400;-74
2023/06/30 11:02:17;;;;;;;4.28;2.40;;;22.20;12.20;;;;;;4955990;28;20415;-75
2023/06/30 11:04:47;;;;;;;5.97;2.40;;;22.70;11.80;;;;;;4967572;28;20409;-75
2023/06/30 11:07:29;;;;;;;11.05;3.20;;;23.40;11.20;;;;;;4963362;28;20420;-75
2023/06/30 11:10:00;;;;;;;5.95;2.00;;;23.20;11.50;;;;;;4951937;29;20386;-73
2023/06/30 11:12:27;;;;;;;5.20;2.57;;;23.40;10.90;;;;;;4952318;29;20425;-74
2023/06/30 11:15:00;;;;;;;4.07;2.13;;;23.10;11.10;;;;;;4952735;28;20407;-76
2023/06/30 11:17:50;;;;;;;5.32;2.50;;;23.30;11.70;;;;;;4971103;28;20419;-76
2023/06/30 11:20:16;;;;;;;9.02;2.60;;;23.60;10.60;;;;;;4965710;28;20384;-76
2023/06/30 11:22:55;;;;;;;8.02;1.80;;;23.30;12.00;;;;;;4973889;28;20483;-75
2023/06/30 11:25:20;;;;;;;5.97;2.67;;;23.10;11.60;;;;;;4973871;28;20420;-76
2023/06/30 11:27:46;;;;;;;7.90;2.90;;;22.50;11.90;;;;;;4976933;28;20817;-75
2023/06/30 11:30:18;;;;;;;4.40;2.20;;;23.10;11.40;;;;;;4975748;28;20399;-75
2023/06/30 11:32:45;;;;;;;6.45;2.47;;;23.60;10.50;;;;;;4974297;28;20405;-74
2023/06/30 11:35:12;;;;;;;6.10;2.80;;;24.10;10.60;;;;;;4990664;28;20398;-76
2023/06/30 11:37:38;;;;;;;7.20;2.67;;;24.40;9.00;;;;;;4992056;28;20443;-75
2023/06/30 11:40:07;;;;;;;5.20;2.47;;;24.00;9.50;;;;;;4978615;28;20388;-73
2023/06/30 11:42:38;;;;;;;9.48;3.10;;;23.20;10.40;;;;;;4977366;28;20411;-76
2023/06/30 11:45:05;;;;;;;7.60;3.30;;;22.80;10.80;;;;;;4994852;28;20391;-75
2023/06/30 11:47:30;;;;;;;6.95;2.90;;;22.40;12.40;;;;;;4979505;28;20443;-75
2023/06/30 11:49:56;;;;;;;7.20;2.60;;;22.40;12.80;;;;;;4979409;28;20503;-76
2023/06/30 11:52:22;;;;;;;5.78;2.90;;;22.60;13.10;;;;;;4977729;28;20435;-76
2023/06/30 11:54:47;;;;;;;7.17;2.80;;;22.80;12.60;;;;;;4994453;28;20396;-76
2023/06/30 11:57:13;;;;;;;4.27;2.30;;;22.90;12.30;;;;;;4980171;28;20434;-75
2023/06/30 11:59:39;;;;;;;8.07;2.40;;;22.70;12.80;;;;;;4995116;28;20447;-76
2023/06/30 12:02:05;;;;;;;6.88;2.28;;;22.70;13.40;;;;;;4979052;28;20753;-74
2023/06/30 12:04:35;;;;;;;5.40;2.07;;;23.10;12.00;;;;;;4979266;28;20418;-76
2023/06/30 12:07:03;;;;;;;9.93;2.30;;;23.60;10.30;;;;;;4980046;28;20959;-75
2023/06/30 12:09:29;;;;;;;6.20;2.30;;;23.90;11.00;;;;;;4994396;28;20483;-75
2023/06/30 12:11:56;;;;;;;7.10;2.40;;;24.40;9.50;;;;;;4978855;28;20380;-76
2023/06/30 12:14:23;;;;;;;6.95;2.25;;;24.60;9.30;;;;;;4977426;28;20482;-76
2023/06/30 12:16:51;;;;;;;5.40;2.60;;;24.40;9.90;;;;;;4978811;28;20387;-75
2023/06/30 12:19:18;;;;;;;5.90;2.90;;;23.70;11.70;;;;;;4979219;28;20789;-76
2023/06/30 12:21:59;;;;;;;5.75;2.88;;;23.50;10.80;;;;;;4995363;28;20392;-76
2023/06/30 12:24:29;;;;;;;5.32;2.42;;;23.20;10.50;;;;;;4994893;28;20404;-75
2023/06/30 12:26:55;;;;;;;5.95;2.78;;;22.80;11.30;;;;;;4978482;28;20411;-76
2023/06/30 12:29:20;;;;;;;7.07;2.77;;;22.70;10.90;;;;;;4978994;28;20834;-75
2023/06/30 12:31:47;;;;;;;9.20;2.20;;;23.00;11.10;;;;;;4993831;28;20450;-75
2023/06/30 12:34:31;;;;;;;4.80;2.20;;;23.30;11.20;;;;;;4978943;28;21013;-75
2023/06/30 12:36:57;;;;;;;4.03;2.10;;;23.40;10.40;;;;;;4977090;28;20558;-75
2023/06/30 12:39:23;;;;;;;6.68;2.50;;;22.90;11.70;;;;;;4978342;28;20403;-76